Observations for PIACENZA IT-AFB, Italy (LIMS)

LIMS 191755Z 12004KT 3000 BR FEW080 17/17 Q1014 
LIMS 191755Z 12004KT 3000 BR FEW080 17/17 Q1014 RMK SCT VIS MIN 3000 WIND THR3012004KT YLO
LIMS 191655Z 10002KT 2700 BR NSC 18/18 Q1013
LIMS 191655Z 10002KT 2700 BR NSC 18/18 Q1013 RMK BKN FEW090 SCT180 VIS MIN 2700WIND THR30 23002KT YLO
LIMS 191555Z 08003KT 4000 BR FEW030 SCT080 19/19 Q1013  
LIMS 191555Z 08003KT 4000 BR FEW030 SCT080 19/19 Q1013 RMK BKN VIS MIN 4000 WIND THR30 07004KT GRN
LIMS 191455Z 11008KT 4000 BR SCT030 SCT080 19/19 Q1013  
LIMS 191455Z 11008KT 4000 BR SCT030 SCT080 19/19 Q1013 RMK BKN VIS MIN 4000 WIND THR30 08006KT GRN
LIMS 191355Z 07008KT 3000 BR FEW010 SCT030 BKN070 19/19 Q1014   
LIMS 191355Z 07008KT 3000 BR FEW010 SCT030 BKN070 19/19 Q1014 RMK OVC VIS MIN 3000 WIND THR30 06005KT YLO
LIMS 191255Z 07005KT 3000 BR FEW040 SCT070 19/19 Q1014  
LIMS 191255Z 07005KT 3000 BR FEW040 SCT070 19/19 Q1014 RMK BKN VIS MIN 3000 WIND THR30 03004KT YLO
LIMS 191155Z 07008KT 2500 BR FEW040 SCT070 18/18 Q1014  
LIMS 191155Z 07008KT 2500 BR FEW040 SCT070 18/18 Q1014 RMK BKN VIS MIN 2500 WIND THR30 05006KT YLO
LIMS 191055Z 10007KT 3000 BR FEW040 SCT070 18/18 Q1014  
LIMS 191055Z 10007KT 3000 BR FEW040 SCT070 18/18 Q1014 RMK BKN VIS MIN 3000 WIND THR30 09005KT YLO
LIMS 190955Z 11005KT 3500 BR FEW040 SCT070 16/16 Q1014  
LIMS 190955Z 11005KT 3500 BR FEW040 SCT070 16/16 Q1014 RMK BKN VIS MIN 3500 WIND THR30 09005KT YLO
LIMS 190855Z 12006KT 3500 BR SCT040 BKN070 16/16 Q1014  
LIMS 190855Z 12006KT 3500 BR SCT040 BKN070 16/16 Q1014 RMK OVC VIS MIN 3500 WIND THR30 11005KT YLO
LIMS 190755Z 14004KT 3500 BR SCT040 BKN070 15/15 Q1015  
LIMS 190755Z 14004KT 3500 BR SCT040 BKN070 15/15 Q1015 RMK OVC VIS MIN 3500 WIND THR30 09006KT YLO
LIMS 190655Z 26001KT 2500 -RA BR SCT040 BKN070 15/15 Q1013  
LIMS 190655Z 26001KT 2500 -RA BR SCT040 BKN070 15/15 Q1013 RMK OVC VIS MIN 2500WIND THR30 24001KT YLO
LIMS 190555Z 00000KT 1700 BR FEW010 SCT040 15/15 Q1013  
LIMS 190555Z 00000KT 1700 BR FEW010 SCT040 15/15 Q1013 RMK BKN VIS MIN 1700 WIND THR30 00000KT YLO